Terminal Aerodrome Forecast
Issued by NWS Louisville, KY

Home | Current Version | Previous Version | Text Only | Print | Product List | Glossary On
Versions: 1 2 3 4 5 6 7 8 9 10 11 12 13 14 15 16 17 18 19 20 21 22 23
000
FTUS43 KLMK 181721
TAFSDF
TAF
KSDF 181721Z 1818/1924 21018G33KT P6SM VCSH OVC021
     FM182200 22020G37KT 5SM -SHRA VCTS OVC012CB
     FM182330 30025G37KT P6SM VCSH OVC015
     FM190600 30015G24KT P6SM OVC026
     FM191100 29013KT P6SM BKN029=

USA.gov is the U.S. government's official web portal to all federal, state and local government web resources and services.